createdAt,value
2018-11-21T00:02:03.486Z,20.40
2018-11-21T00:04:30.877Z,19.20
2018-11-21T00:06:57.787Z,20.23
2018-11-21T00:09:25.387Z,20.63
2018-11-21T00:11:52.742Z,20.13
2018-11-21T00:14:19.652Z,19.27
2018-11-21T00:16:46.610Z,19.40
2018-11-21T00:19:13.979Z,18.73
2018-11-21T00:21:41.205Z,19.73
2018-11-21T00:24:08.747Z,19.50
2018-11-21T00:26:35.758Z,21.13
2018-11-21T00:29:02.741Z,22.17
2018-11-21T00:31:29.649Z,23.17
2018-11-21T00:33:57.594Z,23.37
2018-11-21T00:36:24.545Z,21.80
2018-11-21T00:38:51.768Z,20.10
2018-11-21T00:41:18.692Z,20.23
2018-11-21T00:43:45.794Z,19.03
2018-11-21T00:46:12.785Z,17.23
2018-11-21T00:48:39.705Z,17.40
2018-11-21T00:51:08.018Z,16.93
2018-11-21T00:53:34.956Z,16.90
2018-11-21T00:56:03.683Z,17.20
2018-11-21T00:58:30.691Z,17.47
2018-11-21T01:00:57.624Z,18.07
2018-11-21T01:03:24.589Z,17.07
2018-11-21T01:05:51.898Z,16.77
2018-11-21T01:08:18.894Z,17.37
2018-11-21T01:10:45.909Z,17.07
2018-11-21T01:13:13.304Z,17.40
2018-11-21T01:15:40.275Z,18.20
2018-11-21T01:18:07.259Z,18.63
2018-11-21T01:20:34.186Z,18.87
2018-11-21T01:23:01.209Z,18.30
2018-11-21T01:25:28.768Z,18.57
2018-11-21T01:27:55.971Z,18.50
2018-11-21T01:30:23.382Z,18.67
2018-11-21T01:32:50.303Z,18.73
2018-11-21T01:35:17.307Z,17.70
2018-11-21T01:37:44.524Z,18.47
2018-11-21T01:40:11.702Z,17.20
2018-11-21T01:42:38.655Z,17.37
2018-11-21T01:45:05.709Z,17.73
2018-11-21T01:47:32.995Z,16.57
2018-11-21T01:49:59.933Z,16.97
2018-11-21T01:52:26.855Z,17.17
2018-11-21T01:54:54.165Z,17.30
2018-11-21T01:57:22.309Z,15.97
2018-11-21T01:59:49.367Z,17.00
2018-11-21T02:02:16.609Z,15.87
2018-11-21T02:04:43.556Z,15.90
2018-11-21T02:07:10.489Z,15.60
2018-11-21T02:09:37.406Z,15.97
2018-11-21T02:12:04.721Z,15.83
2018-11-21T02:14:31.615Z,15.20
2018-11-21T02:16:58.558Z,15.43
2018-11-21T02:19:26.128Z,14.97
2018-11-21T02:21:53.095Z,15.60
2018-11-21T02:24:20.034Z,14.87
2018-11-21T02:26:46.943Z,15.87
2018-11-21T02:29:13.858Z,15.67
2018-11-21T02:31:40.814Z,15.00
2018-11-21T02:34:07.785Z,14.70
2018-11-21T02:36:34.804Z,14.90
2018-11-21T02:39:02.230Z,14.40
2018-11-21T02:41:29.193Z,14.97
2018-11-21T02:43:56.125Z,15.73
2018-11-21T02:46:23.200Z,15.63
2018-11-21T02:48:50.178Z,15.43
2018-11-21T02:51:17.104Z,15.30
2018-11-21T02:53:44.386Z,15.27
2018-11-21T02:56:11.330Z,14.77
2018-11-21T02:58:38.247Z,15.07
2018-11-21T03:01:05.150Z,14.20
2018-11-21T03:03:32.084Z,14.47
2018-11-21T03:05:59.016Z,13.40
2018-11-21T03:08:25.946Z,14.00
2018-11-21T03:10:53.250Z,14.90
2018-11-21T03:13:28.106Z,14.07
2018-11-21T03:15:47.546Z,14.93
2018-11-21T03:18:14.473Z,13.90
2018-11-21T03:20:41.373Z,14.33
2018-11-21T03:23:08.646Z,14.00
2018-11-21T03:25:35.985Z,14.50
2018-11-21T03:28:03.043Z,14.00
2018-11-21T03:30:29.967Z,14.17
2018-11-21T03:32:57.227Z,14.50
2018-11-21T03:35:24.237Z,14.53
2018-11-21T03:37:51.111Z,14.03
2018-11-21T03:40:18.683Z,14.50
2018-11-21T03:42:45.606Z,14.00
2018-11-21T03:45:12.976Z,14.17
2018-11-21T03:47:40.178Z,13.93
2018-11-21T03:50:08.725Z,13.67
2018-11-21T03:52:35.830Z,14.50
2018-11-21T03:55:02.760Z,13.73
2018-11-21T03:57:30.713Z,13.03
2018-11-21T03:59:58.446Z,13.23
2018-11-21T04:02:25.685Z,14.10
2018-11-21T04:04:52.977Z,13.10
2018-11-21T04:07:19.894Z,13.70
2018-11-21T04:09:47.110Z,13.93
2018-11-21T04:12:14.331Z,13.37
2018-11-21T04:14:41.290Z,13.43
2018-11-21T04:17:08.448Z,13.73
2018-11-21T04:19:35.391Z,13.57
2018-11-21T04:22:02.639Z,14.17
2018-11-21T04:24:29.631Z,13.80
2018-11-21T04:26:56.845Z,12.77
2018-11-21T04:29:23.805Z,14.17
2018-11-21T04:31:50.812Z,13.63
2018-11-21T04:34:17.724Z,12.80
2018-11-21T04:36:44.717Z,13.67
2018-11-21T04:39:11.906Z,13.23
2018-11-21T04:41:39.283Z,12.70
2018-11-21T04:44:06.185Z,12.57
2018-11-21T04:46:33.178Z,12.90
2018-11-21T04:49:00.168Z,12.73
2018-11-21T04:51:27.154Z,12.73
2018-11-21T04:53:54.444Z,12.80
2018-11-21T04:56:21.371Z,12.53
2018-11-21T04:58:48.296Z,12.67
2018-11-21T05:01:15.293Z,12.50
2018-11-21T05:03:42.631Z,12.40
2018-11-21T05:06:09.849Z,12.87
2018-11-21T05:08:37.169Z,12.67
2018-11-21T05:11:04.197Z,13.20
2018-11-21T05:13:31.364Z,12.73
2018-11-21T05:15:59.043Z,13.70
2018-11-21T05:18:26.426Z,12.87
2018-11-21T05:20:54.021Z,13.23
2018-11-21T05:23:21.489Z,13.10
2018-11-21T05:25:49.231Z,12.50
2018-11-21T05:28:16.142Z,13.40
2018-11-21T05:30:43.453Z,13.43
2018-11-21T05:33:10.679Z,12.47
2018-11-21T05:35:37.659Z,12.30
2018-11-21T05:38:04.589Z,12.73
2018-11-21T05:40:31.975Z,13.00
2018-11-21T05:42:58.900Z,12.60
2018-11-21T05:45:26.523Z,11.87
2018-11-21T05:47:53.783Z,11.93
2018-11-21T05:50:20.728Z,12.30
2018-11-21T05:52:47.970Z,12.23
2018-11-21T05:55:15.278Z,12.20
2018-11-21T05:57:43.123Z,12.47
2018-11-21T06:00:11.499Z,12.10
2018-11-21T06:02:38.952Z,11.30
2018-11-21T06:05:06.659Z,11.60
2018-11-21T06:07:33.582Z,11.60
2018-11-21T06:10:00.826Z,13.27
2018-11-21T06:12:28.067Z,11.30
2018-11-21T06:14:55.717Z,11.60
2018-11-21T06:17:23.216Z,11.37
2018-11-21T06:19:50.141Z,11.33
2018-11-21T06:22:17.665Z,11.43
2018-11-21T06:24:45.062Z,11.67
2018-11-21T06:27:12.134Z,11.80
2018-11-21T06:29:39.399Z,11.17
2018-11-21T06:32:06.510Z,11.07
2018-11-21T06:34:33.733Z,11.60
2018-11-21T06:37:00.665Z,11.03
2018-11-21T06:39:28.017Z,10.97
2018-11-21T06:41:55.719Z,10.43
2018-11-21T06:44:22.969Z,11.27
2018-11-21T06:46:50.259Z,11.63
2018-11-21T06:49:17.922Z,11.33
2018-11-21T06:51:45.120Z,11.10
2018-11-21T06:54:13.061Z,10.63
2018-11-21T06:56:40.331Z,11.30
2018-11-21T06:59:07.328Z,11.00
2018-11-21T07:01:35.006Z,10.77
2018-11-21T07:04:02.222Z,9.70
2018-11-21T07:06:29.138Z,10.60
2018-11-21T07:08:56.099Z,10.23
2018-11-21T07:11:23.035Z,10.00
2018-11-21T07:13:50.382Z,10.37
2018-11-21T07:16:17.360Z,10.37
2018-11-21T07:18:44.310Z,10.50
2018-11-21T07:21:12.152Z,11.07
2018-11-21T07:23:39.127Z,10.53
2018-11-21T07:26:06.515Z,10.37
2018-11-21T07:28:33.545Z,9.73
2018-11-21T07:31:00.772Z,10.13
2018-11-21T07:33:27.735Z,9.77
2018-11-21T07:35:54.995Z,8.47
2018-11-21T07:38:22.374Z,8.53
2018-11-21T07:40:49.916Z,8.93
2018-11-21T07:43:17.720Z,9.30
2018-11-21T07:45:44.694Z,9.30
2018-11-21T07:48:11.605Z,9.30
2018-11-21T07:50:38.536Z,8.97
2018-11-21T07:53:05.454Z,8.97
2018-11-21T07:55:32.397Z,9.30
2018-11-21T07:58:01.970Z,9.20
2018-11-21T08:01:08.954Z,8.63
2018-11-21T08:03:38.432Z,8.87
2018-11-21T08:06:07.829Z,9.10
2018-11-21T08:09:12.738Z,9.40
2018-11-21T08:11:58.287Z,8.73
2018-11-21T08:14:47.631Z,8.73
2018-11-21T08:17:23.883Z,8.40
2018-11-21T08:20:22.516Z,8.77
2018-11-21T08:23:24.472Z,8.60
2018-11-21T08:26:23.226Z,8.00
2018-11-21T08:28:50.326Z,8.10
2018-11-21T08:31:18.007Z,7.87
2018-11-21T08:33:45.300Z,8.03
2018-11-21T08:36:12.734Z,8.37
2018-11-21T08:38:40.267Z,8.20
2018-11-21T08:41:07.916Z,8.70
2018-11-21T08:43:36.091Z,8.60
2018-11-21T08:46:03.243Z,10.03
2018-11-21T08:48:31.767Z,8.73
2018-11-21T08:50:59.027Z,9.10
2018-11-21T08:53:26.306Z,8.40
2018-11-21T08:55:53.500Z,7.60
2018-11-21T08:58:21.526Z,7.13
2018-11-21T09:00:49.240Z,6.40
2018-11-21T09:03:16.215Z,6.43
2018-11-21T09:05:43.733Z,6.40
2018-11-21T09:08:11.308Z,7.13
2018-11-21T09:10:38.329Z,7.03
2018-11-21T09:13:05.310Z,6.50
2018-11-21T09:15:32.271Z,7.27
2018-11-21T09:18:00.053Z,6.93
2018-11-21T09:20:27.799Z,7.30
2018-11-21T09:22:56.059Z,7.00
2018-11-21T09:25:23.338Z,7.37
2018-11-21T09:27:50.231Z,7.07
2018-11-21T09:30:18.957Z,6.70
2018-11-21T09:32:47.167Z,6.60
2018-11-21T09:35:15.123Z,6.30
2018-11-21T09:37:42.968Z,6.40
2018-11-21T09:40:15.400Z,6.07
2018-11-21T09:42:43.722Z,5.47
2018-11-21T09:45:12.387Z,6.23
2018-11-21T09:47:39.852Z,5.87
2018-11-21T09:50:12.945Z,6.40
2018-11-21T09:52:40.575Z,6.77
2018-11-21T09:55:07.822Z,6.83
2018-11-21T09:57:35.116Z,6.07
2018-11-21T10:00:03.040Z,6.30
2018-11-21T10:03:09.170Z,6.00
2018-11-21T10:05:36.491Z,8.87
2018-11-21T10:08:35.766Z,6.73
2018-11-21T10:11:03.152Z,6.83
2018-11-21T10:13:30.816Z,6.47
2018-11-21T10:16:01.041Z,6.93
2018-11-21T10:18:25.374Z,6.73
2018-11-21T10:20:52.639Z,6.70
2018-11-21T10:23:19.552Z,6.87
2018-11-21T10:25:47.054Z,7.13
2018-11-21T10:28:14.745Z,7.23
2018-11-21T10:30:41.972Z,6.70
2018-11-21T10:33:09.257Z,6.70
2018-11-21T10:35:36.448Z,6.93
2018-11-21T10:38:03.814Z,7.00
2018-11-21T10:40:31.050Z,7.70
2018-11-21T10:42:57.983Z,7.17
2018-11-21T10:45:25.430Z,6.53
2018-11-21T10:47:52.614Z,7.30
2018-11-21T10:50:20.015Z,6.90
2018-11-21T10:52:47.317Z,7.30
2018-11-21T10:55:14.578Z,8.10
2018-11-21T10:57:41.493Z,7.67
2018-11-21T11:00:14.047Z,7.50
2018-11-21T11:02:59.375Z,7.13
2018-11-21T11:05:48.600Z,7.80
2018-11-21T11:08:44.508Z,8.27
2018-11-21T11:11:31.453Z,7.83
2018-11-21T11:14:16.819Z,7.90
2018-11-21T11:17:02.351Z,8.23
2018-11-21T11:19:47.216Z,8.57
2018-11-21T11:22:36.721Z,8.17
2018-11-21T11:25:26.263Z,8.57
2018-11-21T11:28:14.596Z,8.50
2018-11-21T11:31:00.229Z,9.07
2018-11-21T11:33:45.728Z,15.17
2018-11-21T11:36:35.086Z,10.83
2018-11-21T11:39:27.219Z,9.50
2018-11-21T11:42:17.019Z,14.53
2018-11-21T11:44:58.391Z,10.67
2018-11-21T11:47:43.628Z,13.70
2018-11-21T11:50:35.994Z,9.07
2018-11-21T11:53:25.278Z,9.80
2018-11-21T11:56:14.429Z,10.17
2018-11-21T11:59:01.307Z,9.13
2018-11-21T12:01:41.736Z,8.23
2018-11-21T12:04:29.338Z,8.03
2018-11-21T12:07:08.338Z,8.60
2018-11-21T12:10:04.748Z,8.43
2018-11-21T12:12:50.279Z,8.33
2018-11-21T12:15:55.021Z,9.87
2018-11-21T12:18:42.416Z,9.67
2018-11-21T12:21:29.223Z,8.90
2018-11-21T12:24:30.917Z,9.33
2018-11-21T12:27:24.090Z,8.87
2018-11-21T12:30:12.723Z,9.33
2018-11-21T12:33:00.969Z,8.97
2018-11-21T12:35:51.839Z,9.60
2018-11-21T12:38:37.316Z,8.70
2018-11-21T12:41:34.042Z,8.80
2018-11-21T12:44:29.974Z,9.10
2018-11-21T12:47:14.998Z,9.37
2018-11-21T12:50:00.364Z,11.37
2018-11-21T12:52:50.170Z,11.47
2018-11-21T12:55:31.962Z,9.87
2018-11-21T12:58:12.550Z,9.43
2018-11-21T13:00:57.728Z,9.63
2018-11-21T13:03:33.002Z,8.77
2018-11-21T13:06:11.575Z,8.73
2018-11-21T13:08:47.459Z,8.63
2018-11-21T13:11:36.999Z,9.27
2018-11-21T13:14:12.823Z,8.80
2018-11-21T13:16:57.701Z,8.87
2018-11-21T13:19:47.506Z,8.50
2018-11-21T13:22:28.388Z,9.07
2018-11-21T13:25:13.973Z,8.87
2018-11-21T13:27:59.216Z,8.60
2018-11-21T13:30:44.903Z,8.07
2018-11-21T13:33:30.384Z,8.27
2018-11-21T13:36:05.408Z,8.63
2018-11-21T13:39:01.472Z,8.47
2018-11-21T13:41:47.342Z,8.50
2018-11-21T13:44:37.467Z,9.07
2018-11-21T13:47:10.670Z,8.80
2018-11-21T13:50:02.945Z,10.93
2018-11-21T13:53:08.483Z,8.37
2018-11-21T13:55:35.638Z,8.47
2018-11-21T13:58:02.757Z,9.30
2018-11-21T14:00:30.471Z,8.50
2018-11-21T14:02:57.352Z,9.03
2018-11-21T14:05:25.851Z,8.17
2018-11-21T14:07:53.220Z,8.27
2018-11-21T14:10:20.247Z,9.40
2018-11-21T14:12:47.808Z,8.27
2018-11-21T14:15:14.799Z,8.53
2018-11-21T14:17:41.961Z,8.40
2018-11-21T14:20:10.077Z,8.67
2018-11-21T14:22:37.048Z,9.37
2018-11-21T14:25:05.977Z,9.30
2018-11-21T14:27:33.433Z,8.50
2018-11-21T14:30:00.573Z,9.30
2018-11-21T14:32:43.271Z,8.67
2018-11-21T14:35:09.653Z,9.30
2018-11-21T14:37:36.934Z,9.53
2018-11-21T14:40:07.266Z,9.80
2018-11-21T14:42:34.239Z,9.40
2018-11-21T14:45:01.233Z,9.40
2018-11-21T14:47:28.354Z,9.50
2018-11-21T14:49:57.156Z,8.83
2018-11-21T14:52:24.135Z,9.00
2018-11-21T14:55:12.572Z,9.17
2018-11-21T14:57:39.873Z,9.00
2018-11-21T15:00:10.276Z,9.37
2018-11-21T15:02:37.907Z,9.20
2018-11-21T15:05:05.930Z,8.77
2018-11-21T15:07:33.474Z,8.90
2018-11-21T15:10:01.476Z,9.57
2018-11-21T15:12:30.104Z,8.97
2018-11-21T15:14:57.397Z,9.53
2018-11-21T15:17:25.033Z,10.00
2018-11-21T15:19:52.232Z,9.53
2018-11-21T15:22:21.933Z,9.40
2018-11-21T15:24:48.823Z,9.73
2018-11-21T15:27:15.975Z,10.13
2018-11-21T15:32:10.095Z,9.20
2018-11-21T15:34:37.846Z,9.83
2018-11-21T15:37:04.891Z,10.03
2018-11-21T15:39:32.128Z,9.40
2018-11-21T15:41:59.298Z,10.10
2018-11-21T15:44:26.418Z,10.00
2018-11-21T15:46:53.714Z,9.67
2018-11-21T15:49:20.655Z,9.57
2018-11-21T15:51:47.872Z,10.13
2018-11-21T15:54:15.731Z,9.70
2018-11-21T15:56:42.956Z,9.30
2018-11-21T15:59:10.562Z,9.77
2018-11-21T16:01:37.776Z,9.60
2018-11-21T16:04:05.125Z,10.10
2018-11-21T16:06:32.804Z,9.60
2018-11-21T16:09:00.007Z,9.60
2018-11-21T16:11:27.048Z,9.97
2018-11-21T16:13:54.773Z,9.73
2018-11-21T16:16:21.746Z,9.90
2018-11-21T16:18:48.954Z,9.73
2018-11-21T16:21:16.462Z,10.20
2018-11-21T16:23:43.390Z,10.20
2018-11-21T16:26:10.589Z,10.17
2018-11-21T16:28:37.767Z,10.13
2018-11-21T16:31:05.053Z,10.17
2018-11-21T16:33:32.499Z,10.33
2018-11-21T16:35:59.696Z,10.03
2018-11-21T16:38:27.201Z,10.07
2018-11-21T16:40:54.865Z,9.80
2018-11-21T16:43:22.267Z,10.07
2018-11-21T16:45:51.477Z,10.07
2018-11-21T16:48:19.710Z,10.40
2018-11-21T16:50:47.568Z,10.03
2018-11-21T16:53:14.760Z,10.47
2018-11-21T16:55:41.921Z,9.77
2018-11-21T16:58:09.236Z,10.10
2018-11-21T17:00:36.151Z,10.40
2018-11-21T17:03:03.296Z,10.37
2018-11-21T17:05:30.326Z,10.40
2018-11-21T17:07:57.666Z,10.33
2018-11-21T17:10:26.481Z,10.93
2018-11-21T17:12:53.672Z,10.33
2018-11-21T17:15:22.257Z,11.37
2018-11-21T17:17:49.391Z,11.17
2018-11-21T17:20:21.088Z,10.60
2018-11-21T17:22:49.385Z,11.17
2018-11-21T17:25:17.761Z,10.50
2018-11-21T17:27:45.326Z,10.43
2018-11-21T17:30:16.228Z,11.73
2018-11-21T17:32:43.245Z,12.27
2018-11-21T17:35:11.855Z,10.93
2018-11-21T17:37:39.210Z,10.90
2018-11-21T17:40:17.856Z,11.67
2018-11-21T17:42:47.491Z,11.27
2018-11-21T17:45:15.171Z,10.97
2018-11-21T17:47:42.520Z,10.73
2018-11-21T17:50:11.667Z,10.57
2018-11-21T17:52:38.684Z,10.83
2018-11-21T17:55:07.319Z,10.83
2018-11-21T17:57:34.635Z,10.30
2018-11-21T18:00:02.024Z,11.10
2018-11-21T18:02:29.263Z,11.37
2018-11-21T18:04:56.886Z,12.87
2018-11-21T18:07:23.843Z,13.20
2018-11-21T18:09:51.220Z,13.73
2018-11-21T18:12:18.528Z,13.57
2018-11-21T18:14:45.843Z,12.43
2018-11-21T18:17:13.075Z,14.53
2018-11-21T18:19:39.985Z,14.00
2018-11-21T18:22:06.941Z,15.17
2018-11-21T18:24:34.054Z,15.43
2018-11-21T18:27:00.976Z,16.83
2018-11-21T18:29:28.392Z,14.90
2018-11-21T18:31:55.338Z,15.17
2018-11-21T18:34:23.146Z,19.80
2018-11-21T18:36:50.415Z,13.40
2018-11-21T18:39:17.647Z,13.47
2018-11-21T18:41:44.643Z,13.23
2018-11-21T18:44:12.594Z,12.03
2018-11-21T18:46:39.789Z,13.00
2018-11-21T18:49:06.909Z,13.80
2018-11-21T18:51:33.892Z,14.63
2018-11-21T18:54:01.419Z,13.40
2018-11-21T18:57:01.341Z,13.43
2018-11-21T18:59:54.386Z,12.90
2018-11-21T19:02:21.261Z,13.13
2018-11-21T19:04:48.481Z,12.83
2018-11-21T19:07:15.738Z,13.10
2018-11-21T19:09:42.695Z,12.37
2018-11-21T19:12:09.631Z,11.87
2018-11-21T19:14:36.582Z,12.17
2018-11-21T19:17:03.613Z,11.47
